首页
METAR-TAF:

METAR-TAF

机场 :

勒图凯巴黎普拉日, 法国

纬度: 50-30-53N, 经度: 001-37-39E, 海拔: 6米

当前天气观测

该预报发布于27分钟前的14:00 UTC
风速9节,风向南转西南,在南转南东西转西南之间变化
温度 9°C
湿度 81%
气压 1013 hPa
能见度10公里或以上

METAR: LFAT 261400Z AUTO 20009KT 160V240 9999 BKN020/// OVC056/// 09/06 Q1013 BECMG BKN008 BKN020

时间: 15:27 (14:27 UTC)

预报

该预报发布于3小时和27分钟前的11:00 UTC
预报有效从26日的 12点(UTC)到 26日的 21点(UTC)
风速10节,风向南转西南
能見度: 8000
多云层高于800英尺
多云层高于2000英尺
成为
从 26日的 16点(UTC)到 26日的 18点(UTC)
风速15节,风向南转西南,有时为25节阵风

TAF: LFAT 261100Z 2612/2621 20010KT 8000 BKN008 BKN020 BECMG 2616/2618 20015G25KT RA

超过4000个机场的气象观测和天气预报(METAR&TAF报告)。

可查询的气象台以黄色和红色小点在地图上表示。

将鼠标移到小点上方,可查看气象台名称。

然后点击查看天气观测和预报。

如需切换地图:点击带黑十字的绿色按钮放大地图;点击带横线的绿色按钮缩小地图;或者点击绿色箭头查看邻近地区的地图。


METAR-TAF: